1937 Tropical Cyclone NOT_NAMED (1937065S09130)


IBTrACS version v04r00. Visit IBTrACS website for data access.
Please direct all questions to the IBTrACS Q and A forum

Storm track - Intensity - Wind Radii - Intensity Data - Source Data - All data

Summary Information

Storm ID 1937065S09130
Start Mar 5 23Z
Landfall Mar 9 09Z, Mar 10 15Z
Max Intensity 40 kt (Mar 9 00Z), 955 mb (Mar 10 13Z)
End Mar 15 23Z
ATCF IDs
Track status Best track data.

Storm track plot

Map of storm track

Intensity plots

Map of storm track

Radial wind information

No radial wind information for this storm


Position and Intensity Table

BASIN ISO_TIME_________ NATURE LAT LON WMO PRES BOM PRES DS824 WIND DS824 PRES
degrees north degrees east mb mb kts mb
SI 1937-03-05 23:30:00 NR -9.30 129.80
SI 1937-03-06 00:00:00 TS -9.33 129.78
SI 03:00:00 TS -9.60 129.61
SI 06:00:00 TS -9.87 129.45
SI 09:00:00 TS -10.13 129.29
SI 12:00:00 TS -10.38 129.15
SI 15:00:00 TS -10.62 129.02
SI 18:00:00 TS -10.84 128.92
SI 21:00:00 TS -11.04 128.84
SI 23:00:00 TS -11.14 128.72
SI 23:30:00 TS -11.15 128.65
SI 1937-03-07 00:00:00 TS -11.16 128.59
SI 03:00:00 TS -11.26 128.57
SI 06:00:00 TS -11.36 128.61
SI 09:00:00 TS -11.44 128.68
SI 11:00:00 TS -11.48 128.73
SI 12:00:00 TS -11.50 128.75
SI 15:00:00 TS -11.54 128.84
SI 18:00:00 TS -11.57 128.95
SI 21:00:00 TS -11.58 129.06
SI 23:00:00 TS -11.57 129.15
SI 23:30:00 TS -11.57 129.17
SI 1937-03-08 00:00:00 TS -11.56 129.19
SI 03:00:00 TS -11.52 129.32
SI 06:00:00 TS -11.47 129.47
SI 09:00:00 TS -11.39 129.62
SI 11:00:00 TS -11.35 129.71
SI 12:00:00 TS -11.32 129.76
SI 15:00:00 TS -11.25 129.90
SI 18:00:00 TS -11.19 130.03
SI 21:00:00 TS -11.15 130.16
SI 23:00:00 TS -11.14 130.25
SI 23:30:00 TS -11.14 130.27 994 994
SI 1937-03-09 00:00:00 TS -11.14 130.29 40 994
SI 03:00:00 TS -11.16 130.40
SI 06:00:00 TS -11.21 130.49
SI 09:00:00 TS -11.29 130.56
SI 09:30:00 TS -11.31 130.56
SI 11:00:00 TS -11.36 130.58
SI 12:00:00 TS -11.39 130.59
SI 15:00:00 TS -11.52 130.60
SI 18:00:00 TS -11.66 130.59
SI 21:00:00 TS -11.80 130.58
SI 23:00:00 TS -11.90 130.57
SI 23:30:00 TS -11.92 130.57
SI 1937-03-10 00:00:00 TS -11.94 130.57
SI 03:00:00 TS -12.04 130.59
SI 06:00:00 TS -12.12 130.62
SI 09:00:00 TS -12.20 130.68
SI 11:00:00 TS -12.25 130.72
SI 12:00:00 TS -12.27 130.75
SI 13:30:00 TS -12.31 130.78 955 955
SI 15:00:00 TS -12.35 130.82 955
SI 15:50:00 TS -12.37 130.85 955 955
SI 18:00:00 TS -12.48 130.98 965
SI 18:30:00 TS -12.51 131.02 967
SI 21:00:00 TS -12.59 131.26 979
SI 23:00:00 TS -12.65 131.50 989
SI 23:30:00 TS -12.67 131.56 992 992
SI 1937-03-11 00:00:00 TS -12.70 131.60
SI 03:00:00 TS -12.85 131.94
SI 06:00:00 TS -13.04 132.28
SI 09:00:00 TS -13.25 132.62
SI 11:00:00 TS -13.39 132.85
SI 12:00:00 TS -13.45 132.96
SI 15:00:00 TS -13.65 133.26
SI 18:00:00 TS -13.86 133.58
SI 21:00:00 TS -14.11 133.92
SI 23:00:00 TS -14.33 134.20
SI 23:30:00 TS -14.42 134.30 996 996
SI 1937-03-12 00:00:00 TS -14.54 134.41
SP 03:00:00 TS -15.10 135.08
SP 06:00:00 TS -15.66 135.81
SP 09:00:00 TS -16.25 136.60
SP 11:00:00 TS -16.62 137.14
SP 12:00:00 TS -16.79 137.42
SP 15:00:00 TS -17.29 138.26
SP 18:00:00 TS -17.75 139.09
SP 21:00:00 TS -18.18 139.86
SP 23:00:00 TS -18.43 140.30
SP 1937-03-13 00:00:00 TS -18.56 140.50
SP 03:00:00 TS -18.87 140.97
SP 06:00:00 TS -19.14 141.34
SP 09:00:00 TS -19.39 141.66
SP 11:00:00 TS -19.55 141.87
SP 12:00:00 TS -19.64 141.98
SP 15:00:00 TS -19.89 142.31
SP 18:00:00 TS -20.15 142.64
SP 21:00:00 TS -20.45 143.00
SP 23:00:00 TS -20.68 143.27
SP 1937-03-14 00:00:00 TS -20.81 143.42
SP 03:00:00 TS -21.23 143.92
SP 06:00:00 TS -21.71 144.47
SP 09:00:00 TS -22.21 145.04
SP 11:00:00 TS -22.55 145.42
SP 12:00:00 TS -22.72 145.60
SP 15:00:00 TS -23.21 146.15
SP 18:00:00 TS -23.73 146.70
SP 21:00:00 TS -24.18 147.20
SP 23:00:00 TS -24.43 147.49
SP 1937-03-15 00:00:00 TS -24.43 147.56
SP 03:00:00 NR -24.69 147.92
SP 06:00:00 NR -25.28 148.46
SP 09:00:00 NR -25.93 148.93
SP 11:00:00 NR -26.40 149.20
SP 12:00:00 NR -26.65 149.31
SP 15:00:00 NR -27.43 149.57
SP 18:00:00 NR -28.26 149.73
SP 21:00:00 NR -29.12 149.84
SP 23:00:00 NR -29.70 149.90

Source Information

Agency Information
USA
TOKYO
CMA
HKO
NEWDELHI
REUNION
BOM IDCKMSTM0S.csv:Line=929:unnamed
NADI
WELLINGTON
DS824 aus_area.dat:90:NOT NAMED
TD9636 cons_worldwide_trop_cyclone_18710101-19891231-006:Line=2138
TD9635
NEUMANN
MLC

All available IBTrACS Data

SEASON BASIN SUBBASIN ISO_TIME_________ NATURE LAT LON WMO PRES WMO AGENCY DIST2LAND LANDFALL IFLAG USA SSHS BOM LAT BOM LON BOM PRES BOM PRES_METHOD DS824 LAT DS824 LON DS824 STAGE DS824 WIND DS824 PRES TD9636 LAT TD9636 LON TD9636 STAGE STORM SPEED STORM DIR
Year degrees north degrees east mb km km 1 degrees north degrees east mb degrees north degrees east kts mb degrees north degrees east kts degrees
1937 SI WA 1937-03-05 23:30:00 NR -9.30 129.80 bom 204 204 ______O_______ -1 -9.30 129.80 4 219
1937 SI WA 1937-03-06 00:00:00 TS -9.33 129.78 204 204 ______P__O____ -1 -9.35 129.77 -9.30 129.80 TC 6 211
1937 SI WA 03:00:00 TS -9.60 129.61 212 184 ______P__P____ -1 -9.62 129.60 -9.57 129.63 TC 6 211
1937 SI WA 06:00:00 TS -9.87 129.45 189 175 ______P__P____ -1 -9.89 129.44 -9.85 129.46 TC 6 211
1937 SI WA 09:00:00 TS -10.13 129.29 175 156 ______P__P____ -1 -10.15 129.28 -10.11 129.31 TC 6 210
1937 SI WA 12:00:00 TS -10.38 129.15 156 148 ______P__P____ -1 -10.40 129.14 -10.36 129.16 TC 6 208
1937 SI WA 15:00:00 TS -10.62 129.02 156 143 ______P__P____ -1 -10.64 129.01 -10.60 129.03 TC 5 206
1937 SI WA 18:00:00 TS -10.84 128.92 152 142 ______P__P____ -1 -10.86 128.91 -10.82 128.93 TC 5 203
1937 SI WA 21:00:00 TS -11.04 128.84 152 148 ______P__P____ -1 -11.06 128.84 -11.02 128.85 TC 4 213
1937 SI WA 23:00:00 TS -11.14 128.72 159 159 ______P__PO___ -1 -11.17 128.81 -11.14 128.81 TC -11.00 128.00 7 5 240
1937 SI WA 23:30:00 TS -11.15 128.65 bom 167 167 ______O__PP___ -1 -11.20 128.80 -11.17 128.81 TC -11.01 128.02 7 8 261
1937 SI WA 1937-03-07 00:00:00 TS -11.16 128.59 167 165 ______P__OP___ -1 -11.23 128.80 -11.20 128.80 TC -11.02 128.03 7 2 215
1937 SI WA 03:00:00 TS -11.26 128.57 165 163 ______P__PP___ -1 -11.37 128.79 -11.35 128.78 TC -11.07 128.13 7 2 172
1937 SI WA 06:00:00 TS -11.36 128.61 163 153 ______P__PP___ -1 -11.49 128.81 -11.47 128.80 TC -11.12 128.23 7 2 148
1937 SI WA 09:00:00 TS -11.44 128.68 153 152 ______P__PP___ -1 -11.58 128.85 -11.57 128.84 TC -11.17 128.33 7 2 138
1937 SI WA 11:00:00 TS -11.48 128.73 152 141 ______P__PO___ -1 -11.63 128.89 -11.62 128.88 TC -11.20 128.40 7 2 129
1937 SI WA 12:00:00 TS -11.50 128.75 141 141 ______P__PP___ -1 -11.65 128.92 -11.64 128.91 TC -11.21 128.43 7 2 120
1937 SI WA 15:00:00 TS -11.54 128.84 141 130 ______P__PP___ -1 -11.69 129.00 -11.69 128.99 TC -11.25 128.54 7 2 110
1937 SI WA 18:00:00 TS -11.57 128.95 131 109 ______P__PP___ -1 -11.71 129.10 -11.71 129.08 TC -11.28 128.65 7 2 99
1937 SI WA 21:00:00 TS -11.58 129.06 109 109 ______P__PP___ -1 -11.71 129.21 -11.72 129.19 TC -11.30 128.79 7 2 91
1937 SI WA 23:00:00 TS -11.57 129.15 109 98 ______P__PO___ -1 -11.70 129.28 -11.71 129.26 TC -11.30 128.90 7 3 86
1937 SI WA 23:30:00 TS -11.57 129.17 bom 98 98 ______O__PP___ -1 -11.70 129.30 -11.70 129.28 TC -11.30 128.93 7 3 80
1937 SI WA 1937-03-08 00:00:00 TS -11.56 129.19 98 87 ______P__OP___ -1 -11.69 129.31 -11.70 129.30 TC -11.30 128.97 7 3 74
1937 SI WA 03:00:00 TS -11.52 129.32 87 65 ______P__PP___ -1 -11.64 129.39 -11.66 129.40 TC -11.28 129.18 7 3 70
1937 SI WA 06:00:00 TS -11.47 129.47 65 55 ______P__PP___ -1 -11.56 129.47 -11.59 129.52 TC -11.25 129.42 7 3 66
1937 SI WA 09:00:00 TS -11.39 129.62 55 45 ______P__PP___ -1 -11.47 129.56 -11.50 129.63 TC -11.22 129.66 7 3 64
1937 SI WA 11:00:00 TS -11.35 129.71 49 39 ______P__PO___ -1 -11.40 129.62 -11.44 129.71 TC -11.20 129.80 7 3 63
1937 SI WA 12:00:00 TS -11.32 129.76 39 31 ______P__PP___ -1 -11.36 129.66 -11.41 129.75 TC -11.19 129.86 7 3 63
1937 SI WA 15:00:00 TS -11.25 129.90 31 31 ______P__PP___ -1 -11.27 129.77 -11.31 129.88 TC -11.18 130.04 7 3 64
1937 SI WA 18:00:00 TS -11.19 130.03 31 22 ______P__PP___ -1 -11.19 129.90 -11.22 129.99 TC -11.17 130.19 7 3 69
1937 SI WA 21:00:00 TS -11.15 130.16 22 22 ______P__PP___ -1 -11.13 130.06 -11.15 130.10 TC -11.18 130.33 7 3 76
1937 SI WA 23:00:00 TS -11.14 130.25 33 31 ______P__PO___ -1 -11.10 130.17 -11.11 130.17 TC -11.20 130.40 7 3 82
1937 SI WA 23:30:00 TS -11.14 130.27 994 bom 31 31 ______O__PP___ -1 -11.10 130.20 994 -11.11 130.18 TC -11.21 130.42 7 3 87
1937 SI WA 1937-03-09 00:00:00 TS -11.14 130.29 31 15 ______P__OP___ -1 -11.10 130.24 -11.10 130.20 TC 40 994 -11.21 130.44 7 2 100
1937 SI WA 03:00:00 TS -11.16 130.40 15 11 ______P__PP___ -1 -11.08 130.48 -11.12 130.20 TC -11.28 130.52 7 2 110
1937 SI WA 06:00:00 TS -11.21 130.49 11 0 ______P__PP___ -1 -11.11 130.70 -11.17 130.18 TC -11.36 130.59 7 2 130
1937 SI WA 09:00:00 TS -11.29 130.56 0 0 ______P__PP___ -1 -11.18 130.88 -11.25 130.13 TC -11.44 130.66 7 2 143
1937 SI WA 09:30:00 TS -11.31 130.56 bom 0 0 ______O__PP___ -1 -11.20 130.90 -11.26 130.12 TC -11.46 130.67 7 2 171
1937 SI WA 11:00:00 TS -11.36 130.58 0 0 ______P__PO___ -1 -11.27 130.95 -11.31 130.09 TC -11.50 130.70 7 2 0
1937 SI WA 12:00:00 TS -11.39 130.59 0 0 ______P__PP___ -1 -11.32 130.98 -11.34 130.07 TC -11.52 130.72 7 2 0
1937 SI WA 15:00:00 TS -11.52 130.60 bom 0 0 ______O__PP___ -1 -11.50 131.00 -11.45 130.01 TC -11.60 130.79 7 3 0
1937 SI WA 18:00:00 TS -11.66 130.59 0 0 ______P__PP___ -1 -11.72 130.96 -11.58 129.95 TC -11.67 130.87 7 3 183
1937 SI WA 21:00:00 TS -11.80 130.58 0 0 ______P__PP___ -1 -11.94 130.88 -11.72 129.91 TC -11.75 130.94 7 3 0
1937 SI WA 23:00:00 TS -11.90 130.57 11 11 ______P__PO___ -1 -12.07 130.81 -11.81 129.89 TC -11.80 131.00 7 3 0
1937 SI WA 23:30:00 TS -11.92 130.57 bom 11 11 ______O__PP___ -1 -12.10 130.80 -11.84 129.89 TC -11.81 131.01 7 2 0
1937 SI WA 1937-03-10 00:00:00 TS -11.94 130.57 11 11 ______P__PP___ -1 -12.12 130.79 -11.86 129.88 TC -11.83 131.03 7 2 0
1937 SI WA 03:00:00 TS -12.04 130.59 22 22 ______P__PP___ -1 -12.19 130.77 -12.01 129.89 TC -11.91 131.11 7 2 161
1937 SI WA 06:00:00 TS -12.12 130.62 33 24 ______P__PP___ -1 -12.21 130.75 -12.16 129.93 TC -11.99 131.20 7 2 151
1937 SI WA 09:00:00 TS -12.20 130.68 24 24 ______P__PP___ -1 -12.22 130.71 -12.31 130.01 TC -12.06 131.31 7 2 143
1937 SI WA 11:00:00 TS -12.25 130.72 24 15 ______P__PO___ -1 -12.24 130.68 -12.40 130.09 TC -12.10 131.40 7 2 136
1937 SI WA 12:00:00 TS -12.27 130.75 15 11 ______P__PP___ -1 -12.26 130.65 -12.45 130.14 TC -12.11 131.44 7 2 140
1937 SI WA 13:30:00 TS -12.31 130.78 955 bom 11 11 ______O__PP___ -1 -12.30 130.60 955 4 -12.52 130.23 TC -12.11 131.52 7 2 136
1937 SI WA 15:00:00 TS -12.35 130.82 11 0 ______P__PP___ -1 -12.35 130.52 955 -12.58 130.34 TC -12.11 131.59 7 2 133
1937 SI WA 15:50:00 TS -12.37 130.85 955 bom 0 0 ______O__PP___ -1 -12.40 130.50 955 -12.62 130.40 TC -12.10 131.64 7 4 132
1937 SI WA 18:00:00 TS -12.48 130.98 0 0 ______P__OP___ -1 -12.64 130.56 965 -12.70 130.60 TC -12.11 131.76 7 5 129
1937 SI WA 18:30:00 TS -12.51 131.02 bom 0 0 ______I__PP___ -1 -12.70 130.60 967 -12.72 130.65 TC -12.11 131.80 7 6 111
1937 SI WA 21:00:00 TS -12.59 131.26 0 0 ______P__PP___ -1 -12.84 130.89 979 -12.80 130.94 TC -12.14 131.96 7 7 107
1937 SI WA 23:00:00 TS -12.65 131.50 0 0 ______P__PO___ -1 -12.89 131.22 989 -12.86 131.18 TC -12.20 132.10 7 7 105
1937 SI WA 23:30:00 TS -12.67 131.56 992 bom 0 0 ______O__PP___ -1 -12.90 131.30 992 -12.88 131.24 TC -12.22 132.14 7 6 115
1937 SI WA 1937-03-11 00:00:00 TS -12.70 131.60 0 0 ______P__OP___ -1 -12.91 131.38 -12.90 131.30 TC -12.25 132.18 7 7 116
1937 SI WA 03:00:00 TS -12.85 131.94 0 0 ______P__PP___ -1 -13.00 131.85 -13.02 131.67 TC -12.44 132.43 7 8 117
1937 SI WA 06:00:00 TS -13.04 132.28 0 0 ______P__PP___ -1 -13.12 132.27 -13.16 132.03 TC -12.67 132.69 7 8 121
1937 SI WA 09:00:00 TS -13.25 132.62 0 0 ______P__PP___ -1 -13.27 132.65 -13.31 132.40 TC -12.93 132.94 7 8 122
1937 SI WA 11:00:00 TS -13.39 132.85 0 0 ______P__PO___ -1 -13.38 132.89 -13.42 132.64 TC -13.10 133.10 7 8 122
1937 SI WA 12:00:00 TS -13.45 132.96 0 0 ______P__PP___ -1 -13.43 133.01 -13.47 132.76 TC -13.15 133.14 7 7 123
1937 SI WA 15:00:00 TS -13.65 133.26 0 0 ______P__PP___ -1 -13.62 133.34 -13.65 133.12 TC -13.30 133.22 7 7 124
1937 SI WA 18:00:00 TS -13.86 133.58 0 0 ______P__PP___ -1 -13.82 133.65 -13.83 133.48 TC -13.48 133.33 7 8 126
1937 SI WA 21:00:00 TS -14.11 133.92 0 0 ______P__PP___ -1 -14.02 133.95 -14.01 133.84 TC -13.75 133.55 7 9 128
1937 SI WA 23:00:00 TS -14.33 134.20 0 0 ______P__PO___ -1 -14.16 134.15 -14.14 134.08 TC -14.00 133.80 7 11 130
1937 SI WA 23:30:00 TS -14.42 134.30 996 bom 0 0 ______O__PP___ -1 -14.20 134.20 996 -14.17 134.14 TC -14.08 133.89 7 18 137
1937 SI WA 1937-03-12 00:00:00 TS -14.54 134.41 0 0 _________OP___ -1 -14.20 134.20 TC -14.17 133.98 7 17 132
1937 SP EA 03:00:00 TS -15.10 135.08 0 0 __________P___ -1 TC -14.80 134.66 7 18 130
1937 SP EA 06:00:00 TS -15.66 135.81 0 0 __________P___ -1 TC -15.52 135.51 7 19 128
1937 SP EA 09:00:00 TS -16.25 136.60 0 0 __________P___ -1 TC -16.25 136.45 7 19 127
1937 SP EA 11:00:00 TS -16.62 137.14 0 0 __________O___ -1 TC -16.70 137.10 7 19 125
1937 SP EA 12:00:00 TS -16.79 137.42 0 0 __________P___ -1 TC -16.90 137.43 7 19 122
1937 SP EA 15:00:00 TS -17.29 138.26 0 0 __________P___ -1 TC -17.44 138.46 7 19 121
1937 SP EA 18:00:00 TS -17.75 139.09 0 0 __________P___ -1 TC -17.93 139.48 7 18 120
1937 SP EA 21:00:00 TS -18.18 139.86 0 0 __________P___ -1 TC -18.35 140.40 7 16 121
1937 SP EA 23:00:00 TS -18.43 140.30 0 0 __________O___ -1 TC -18.60 140.90 7 14 122
1937 SP EA 1937-03-13 00:00:00 TS -18.56 140.50 0 0 __________P___ -1 -18.72 141.10 7 11 125
1937 SP EA 03:00:00 TS -18.87 140.97 0 0 __________P___ -1 -19.03 141.54 7 10 126
1937 SP EA 06:00:00 TS -19.14 141.34 0 0 __________P___ -1 -19.30 141.84 7 8 128
1937 SP EA 09:00:00 TS -19.39 141.66 0 0 __________P___ -1 -19.54 142.06 7 8 130
1937 SP EA 11:00:00 TS -19.55 141.87 0 0 __________O___ -1 -19.70 142.20 7 8 130
1937 SP EA 12:00:00 TS -19.64 141.98 0 0 __________P___ -1 -19.78 142.29 7 8 129
1937 SP EA 15:00:00 TS -19.89 142.31 0 0 __________P___ -1 -20.00 142.53 7 8 130
1937 SP EA 18:00:00 TS -20.15 142.64 0 0 __________P___ -1 -20.23 142.78 7 9 131
1937 SP EA 21:00:00 TS -20.45 143.00 0 0 __________P___ -1 -20.50 143.07 7 10 132
1937 SP EA 23:00:00 TS -20.68 143.27 0 0 __________O___ -1 -20.70 143.30 7 11 132
1937 SP EA 1937-03-14 00:00:00 TS -20.81 143.42 0 0 __________P___ -1 -20.82 143.44 7 12 132
1937 SP EA 03:00:00 TS -21.23 143.92 0 0 __________P___ -1 -21.22 143.94 7 13 133
1937 SP EA 06:00:00 TS -21.71 144.47 0 0 __________P___ -1 -21.65 144.48 7 14 133
1937 SP EA 09:00:00 TS -22.21 145.04 0 0 __________P___ -1 -22.10 145.04 7 15 134
1937 SP EA 11:00:00 TS -22.55 145.42 0 0 __________O___ -1 -22.40 145.40 7 15 134
1937 SP EA 12:00:00 TS -22.72 145.60 0 0 __________P___ -1 -22.53 145.56 7 14 135
1937 SP EA 15:00:00 TS -23.21 146.15 0 0 __________P___ -1 -22.90 146.02 7 14 135
1937 SP EA 18:00:00 TS -23.73 146.70 0 0 __________P___ -1 -23.28 146.46 7 14 135
1937 SP EA 21:00:00 TS -24.18 147.20 0 0 __________P___ -1 -23.69 146.90 7 12 134
1937 SP EA 23:00:00 TS -24.43 147.49 0 0 __________O___ -1 -24.00 147.20 7 8 128
1937 SP EA 1937-03-15 00:00:00 TS -24.43 147.56 0 0 __________P___ -1 -24.16 147.38 7 7 124
1937 SP EA 03:00:00 NR -24.69 147.92 0 0 __________P___ -1 -24.69 147.92 7 12 136
1937 SP EA 06:00:00 NR -25.28 148.46 0 0 __________P___ -1 -25.28 148.46 7 15 143
1937 SP EA 09:00:00 NR -25.93 148.93 0 0 __________P___ -1 -25.93 148.93 7 16 149
1937 SP EA 11:00:00 NR -26.40 149.20 0 0 __________O___ -1 -26.40 149.20 7 16 155
1937 SP EA 12:00:00 NR -26.65 149.31 0 0 __________P___ -1 -26.65 149.31 7 16 162
1937 SP EA 15:00:00 NR -27.43 149.57 0 0 __________P___ -1 -27.43 149.57 7 17 167
1937 SP EA 18:00:00 NR -28.26 149.73 0 0 __________P___ -1 -28.26 149.73 7 17 172
1937 SP EA 21:00:00 NR -29.12 149.84 0 0 __________P___ -1 -29.12 149.84 7 17 174
1937 SP EA 23:00:00 NR -29.70 149.90 0 __________O___ -1 -29.70 149.90 7 18 175